sensor_id;sensor_type;location;lat;lon;timestamp;pressure;altitude;pressure_sealevel;temperature
22269;BMP280;11303;50.772;19.670;2023-02-28T00:01:23;100141.50;;;-0.98
22269;BMP280;11303;50.772;19.670;2023-02-28T00:03:25;100153.34;;;-0.87
22269;BMP280;11303;50.772;19.670;2023-02-28T00:05:27;100145.72;;;-0.83
22269;BMP280;11303;50.772;19.670;2023-02-28T00:07:30;100146.00;;;-0.85
22269;BMP280;11303;50.772;19.670;2023-02-28T00:09:31;100152.00;;;-0.84
22269;BMP280;11303;50.772;19.670;2023-02-28T00:11:33;100156.66;;;-0.81
22269;BMP280;11303;50.772;19.670;2023-02-28T00:13:36;100150.38;;;-0.80
22269;BMP280;11303;50.772;19.670;2023-02-28T00:15:41;100151.69;;;-0.78
22269;BMP280;11303;50.772;19.670;2023-02-28T00:17:43;100155.31;;;-0.79
22269;BMP280;11303;50.772;19.670;2023-02-28T00:19:45;100160.31;;;-0.82
22269;BMP280;11303;50.772;19.670;2023-02-28T00:21:46;100163.97;;;-0.83
22269;BMP280;11303;50.772;19.670;2023-02-28T00:23:48;100164.34;;;-0.71
22269;BMP280;11303;50.772;19.670;2023-02-28T00:25:50;100154.19;;;-0.73
22269;BMP280;11303;50.772;19.670;2023-02-28T00:27:52;100155.97;;;-0.68
22269;BMP280;11303;50.772;19.670;2023-02-28T00:29:54;100158.28;;;-0.67
22269;BMP280;11303;50.772;19.670;2023-02-28T00:31:56;100156.47;;;-0.66
22269;BMP280;11303;50.772;19.670;2023-02-28T00:33:57;100158.50;;;-0.63
22269;BMP280;11303;50.772;19.670;2023-02-28T00:36:08;100162.53;;;-0.52
22269;BMP280;11303;50.772;19.670;2023-02-28T00:38:10;100157.59;;;-0.54
22269;BMP280;11303;50.772;19.670;2023-02-28T00:40:12;100162.03;;;-0.54
22269;BMP280;11303;50.772;19.670;2023-02-28T00:42:13;100165.97;;;-0.75
22269;BMP280;11303;50.772;19.670;2023-02-28T00:44:15;100151.78;;;-0.88
22269;BMP280;11303;50.772;19.670;2023-02-28T00:46:17;100160.88;;;-0.85
22269;BMP280;11303;50.772;19.670;2023-02-28T00:48:18;100154.66;;;-0.89
22269;BMP280;11303;50.772;19.670;2023-02-28T00:50:20;100163.53;;;-0.90
22269;BMP280;11303;50.772;19.670;2023-02-28T00:52:22;100154.75;;;-0.94
22269;BMP280;11303;50.772;19.670;2023-02-28T00:54:24;100151.13;;;-0.98
22269;BMP280;11303;50.772;19.670;2023-02-28T00:56:25;100151.91;;;-0.98
22269;BMP280;11303;50.772;19.670;2023-02-28T00:58:27;100158.94;;;-0.98
22269;BMP280;11303;50.772;19.670;2023-02-28T01:00:29;100159.94;;;-0.94
22269;BMP280;11303;50.772;19.670;2023-02-28T01:02:30;100156.84;;;-0.96
22269;BMP280;11303;50.772;19.670;2023-02-28T01:04:32;100150.94;;;-1.02
22269;BMP280;11303;50.772;19.670;2023-02-28T01:06:34;100147.53;;;-1.02
22269;BMP280;11303;50.772;19.670;2023-02-28T01:08:35;100153.84;;;-1.08
22269;BMP280;11303;50.772;19.670;2023-02-28T01:10:37;100145.81;;;-1.12
22269;BMP280;11303;50.772;19.670;2023-02-28T01:12:39;100148.53;;;-1.22
22269;BMP280;11303;50.772;19.670;2023-02-28T01:14:41;100144.44;;;-1.28
22269;BMP280;11303;50.772;19.670;2023-02-28T01:16:43;100140.84;;;-1.32
22269;BMP280;11303;50.772;19.670;2023-02-28T01:18:44;100149.50;;;-1.41
22269;BMP280;11303;50.772;19.670;2023-02-28T01:20:46;100144.00;;;-1.40
22269;BMP280;11303;50.772;19.670;2023-02-28T01:22:47;100144.06;;;-1.45
22269;BMP280;11303;50.772;19.670;2023-02-28T01:24:49;100147.97;;;-1.47
22269;BMP280;11303;50.772;19.670;2023-02-28T01:26:50;100139.47;;;-1.53
22269;BMP280;11303;50.772;19.670;2023-02-28T01:28:52;100137.19;;;-1.59
22269;BMP280;11303;50.772;19.670;2023-02-28T01:30:54;100135.66;;;-1.65
22269;BMP280;11303;50.772;19.670;2023-02-28T01:32:55;100140.66;;;-1.69
22269;BMP280;11303;50.772;19.670;2023-02-28T01:34:57;100136.28;;;-1.73
22269;BMP280;11303;50.772;19.670;2023-02-28T01:36:59;100144.13;;;-1.78
22269;BMP280;11303;50.772;19.670;2023-02-28T01:39:00;100143.91;;;-1.87
22269;BMP280;11303;50.772;19.670;2023-02-28T01:41:02;100140.25;;;-1.86
22269;BMP280;11303;50.772;19.670;2023-02-28T01:43:23;100146.75;;;-1.84
22269;BMP280;11303;50.772;19.670;2023-02-28T01:47:32;100137.38;;;-1.79
22269;BMP280;11303;50.772;19.670;2023-02-28T01:49:34;100141.53;;;-1.78
22269;BMP280;11303;50.772;19.670;2023-02-28T01:51:44;100145.19;;;-1.79
22269;BMP280;11303;50.772;19.670;2023-02-28T01:53:51;100138.13;;;-1.79
22269;BMP280;11303;50.772;19.670;2023-02-28T01:55:54;100137.09;;;-1.78
22269;BMP280;11303;50.772;19.670;2023-02-28T01:57:58;100134.22;;;-1.76
22269;BMP280;11303;50.772;19.670;2023-02-28T02:00:06;100151.38;;;-1.75
22269;BMP280;11303;50.772;19.670;2023-02-28T02:02:09;100142.25;;;-1.73
22269;BMP280;11303;50.772;19.670;2023-02-28T02:04:11;100142.75;;;-1.71
22269;BMP280;11303;50.772;19.670;2023-02-28T02:06:12;100145.09;;;-1.69
22269;BMP280;11303;50.772;19.670;2023-02-28T02:08:25;100146.19;;;-1.75
22269;BMP280;11303;50.772;19.670;2023-02-28T02:10:42;100151.13;;;-1.79
22269;BMP280;11303;50.772;19.670;2023-02-28T02:13:05;100146.34;;;-1.67
22269;BMP280;11303;50.772;19.670;2023-02-28T02:15:15;100144.78;;;-1.63
22269;BMP280;11303;50.772;19.670;2023-02-28T02:25:11;100161.69;;;-1.65
22269;BMP280;11303;50.772;19.670;2023-02-28T02:27:20;100154.44;;;-1.68
22269;BMP280;11303;50.772;19.670;2023-02-28T02:31:45;100153.88;;;-1.65
22269;BMP280;11303;50.772;19.670;2023-02-28T02:36:27;100150.59;;;-1.76
22269;BMP280;11303;50.772;19.670;2023-02-28T02:43:22;100158.13;;;-1.74
22269;BMP280;11303;50.772;19.670;2023-02-28T02:45:31;100159.97;;;-1.75
22269;BMP280;11303;50.772;19.670;2023-02-28T02:47:38;100156.56;;;-1.75
22269;BMP280;11303;50.772;19.670;2023-02-28T02:49:45;100161.31;;;-1.83
22269;BMP280;11303;50.772;19.670;2023-02-28T02:51:49;100157.19;;;-1.89
22269;BMP280;11303;50.772;19.670;2023-02-28T02:53:59;100156.91;;;-1.87
22269;BMP280;11303;50.772;19.670;2023-02-28T02:56:02;100149.34;;;-1.84
22269;BMP280;11303;50.772;19.670;2023-02-28T02:58:08;100157.16;;;-1.84
22269;BMP280;11303;50.772;19.670;2023-02-28T03:00:12;100154.78;;;-1.85
22269;BMP280;11303;50.772;19.670;2023-02-28T03:02:16;100155.41;;;-1.93
22269;BMP280;11303;50.772;19.670;2023-02-28T03:04:22;100161.88;;;-1.91
22269;BMP280;11303;50.772;19.670;2023-02-28T03:06:24;100162.94;;;-1.92
22269;BMP280;11303;50.772;19.670;2023-02-28T03:08:29;100163.69;;;-1.91
22269;BMP280;11303;50.772;19.670;2023-02-28T03:10:32;100172.28;;;-1.91
22269;BMP280;11303;50.772;19.670;2023-02-28T03:13:00;100162.16;;;-1.92
22269;BMP280;11303;50.772;19.670;2023-02-28T03:15:19;100147.59;;;-1.93
22269;BMP280;11303;50.772;19.670;2023-02-28T03:17:38;100157.31;;;-2.04
22269;BMP280;11303;50.772;19.670;2023-02-28T03:20:10;100159.44;;;-2.11
22269;BMP280;11303;50.772;19.670;2023-02-28T03:27:08;100154.69;;;-2.04
22269;BMP280;11303;50.772;19.670;2023-02-28T03:29:23;100154.41;;;-1.97
22269;BMP280;11303;50.772;19.670;2023-02-28T03:31:37;100150.41;;;-1.90
22269;BMP280;11303;50.772;19.670;2023-02-28T03:33:44;100146.53;;;-1.92
22269;BMP280;11303;50.772;19.670;2023-02-28T03:35:51;100142.13;;;-1.92
22269;BMP280;11303;50.772;19.670;2023-02-28T03:38:00;100149.66;;;-1.90
22269;BMP280;11303;50.772;19.670;2023-02-28T03:40:11;100149.41;;;-1.94
22269;BMP280;11303;50.772;19.670;2023-02-28T03:42:15;100144.22;;;-1.94
22269;BMP280;11303;50.772;19.670;2023-02-28T03:44:41;100153.34;;;-1.96
22269;BMP280;11303;50.772;19.670;2023-02-28T03:46:53;100144.06;;;-2.07
22269;BMP280;11303;50.772;19.670;2023-02-28T03:49:01;100160.72;;;-2.13
22269;BMP280;11303;50.772;19.670;2023-02-28T03:51:06;100147.03;;;-2.24
22269;BMP280;11303;50.772;19.670;2023-02-28T03:53:31;100157.19;;;-2.32
22269;BMP280;11303;50.772;19.670;2023-02-28T03:55:59;100141.28;;;-2.64
22269;BMP280;11303;50.772;19.670;2023-02-28T03:58:08;100144.69;;;-2.74
22269;BMP280;11303;50.772;19.670;2023-02-28T04:00:20;100148.63;;;-2.81
22269;BMP280;11303;50.772;19.670;2023-02-28T04:02:22;100148.63;;;-2.86
22269;BMP280;11303;50.772;19.670;2023-02-28T04:04:24;100147.84;;;-2.92
22269;BMP280;11303;50.772;19.670;2023-02-28T04:06:26;100144.19;;;-2.91
22269;BMP280;11303;50.772;19.670;2023-02-28T04:08:28;100148.38;;;-2.95
22269;BMP280;11303;50.772;19.670;2023-02-28T04:10:30;100143.72;;;-2.98
22269;BMP280;11303;50.772;19.670;2023-02-28T04:12:31;100154.09;;;-2.98
22269;BMP280;11303;50.772;19.670;2023-02-28T04:14:33;100145.53;;;-2.98
22269;BMP280;11303;50.772;19.670;2023-02-28T04:16:37;100147.38;;;-2.99
22269;BMP280;11303;50.772;19.670;2023-02-28T04:18:39;100139.06;;;-3.01
22269;BMP280;11303;50.772;19.670;2023-02-28T04:20:41;100145.03;;;-3.05
22269;BMP280;11303;50.772;19.670;2023-02-28T04:22:42;100144.03;;;-3.09
22269;BMP280;11303;50.772;19.670;2023-02-28T04:24:44;100153.09;;;-3.12
22269;BMP280;11303;50.772;19.670;2023-02-28T04:26:48;100150.00;;;-3.14
22269;BMP280;11303;50.772;19.670;2023-02-28T04:28:50;100145.63;;;-3.18
22269;BMP280;11303;50.772;19.670;2023-02-28T04:31:02;100164.28;;;-3.26
22269;BMP280;11303;50.772;19.670;2023-02-28T04:33:04;100162.47;;;-3.31
22269;BMP280;11303;50.772;19.670;2023-02-28T04:35:05;100159.13;;;-3.42
22269;BMP280;11303;50.772;19.670;2023-02-28T04:37:07;100169.50;;;-3.52
22269;BMP280;11303;50.772;19.670;2023-02-28T04:39:15;100171.56;;;-3.54
22269;BMP280;11303;50.772;19.670;2023-02-28T04:41:18;100160.94;;;-3.52
22269;BMP280;11303;50.772;19.670;2023-02-28T04:43:20;100156.78;;;-3.53
22269;BMP280;11303;50.772;19.670;2023-02-28T04:45:21;100171.28;;;-3.52
22269;BMP280;11303;50.772;19.670;2023-02-28T04:47:23;100181.19;;;-3.54
22269;BMP280;11303;50.772;19.670;2023-02-28T04:49:24;100173.38;;;-3.59
22269;BMP280;11303;50.772;19.670;2023-02-28T04:51:26;100176.50;;;-3.67
22269;BMP280;11303;50.772;19.670;2023-02-28T04:53:29;100180.88;;;-3.78
22269;BMP280;11303;50.772;19.670;2023-02-28T04:55:30;100177.00;;;-3.80
22269;BMP280;11303;50.772;19.670;2023-02-28T04:57:32;100181.16;;;-3.84
22269;BMP280;11303;50.772;19.670;2023-02-28T04:59:33;100183.22;;;-3.86
22269;BMP280;11303;50.772;19.670;2023-02-28T05:01:35;100182.47;;;-3.87
22269;BMP280;11303;50.772;19.670;2023-02-28T05:03:38;100190.72;;;-3.95
22269;BMP280;11303;50.772;19.670;2023-02-28T05:05:41;100195.91;;;-3.95
22269;BMP280;11303;50.772;19.670;2023-02-28T05:07:44;100193.56;;;-3.96
22269;BMP280;11303;50.772;19.670;2023-02-28T05:09:46;100196.41;;;-3.98
22269;BMP280;11303;50.772;19.670;2023-02-28T05:11:47;100197.72;;;-4.00
22269;BMP280;11303;50.772;19.670;2023-02-28T05:13:50;100190.97;;;-4.01
22269;BMP280;11303;50.772;19.670;2023-02-28T05:15:51;100204.44;;;-3.99
22269;BMP280;11303;50.772;19.670;2023-02-28T05:17:53;100203.66;;;-4.00
22269;BMP280;11303;50.772;19.670;2023-02-28T05:19:55;100203.16;;;-4.02
22269;BMP280;11303;50.772;19.670;2023-02-28T05:22:15;100207.81;;;-4.04
22269;BMP280;11303;50.772;19.670;2023-02-28T05:24:18;100206.00;;;-4.03
22269;BMP280;11303;50.772;19.670;2023-02-28T05:26:26;100201.31;;;-4.01
22269;BMP280;11303;50.772;19.670;2023-02-28T05:28:29;100198.47;;;-4.00
22269;BMP280;11303;50.772;19.670;2023-02-28T05:30:32;100200.03;;;-3.99
22269;BMP280;11303;50.772;19.670;2023-02-28T05:32:33;100200.03;;;-3.99
22269;BMP280;11303;50.772;19.670;2023-02-28T05:34:36;100202.88;;;-3.95
22269;BMP280;11303;50.772;19.670;2023-02-28T05:36:38;100209.38;;;-3.93
22269;BMP280;11303;50.772;19.670;2023-02-28T05:38:40;100207.53;;;-3.92
22269;BMP280;11303;50.772;19.670;2023-02-28T05:40:41;100207.53;;;-3.92
22269;BMP280;11303;50.772;19.670;2023-02-28T05:42:43;100215.06;;;-3.91
22269;BMP280;11303;50.772;19.670;2023-02-28T05:44:45;100206.53;;;-3.91
22269;BMP280;11303;50.772;19.670;2023-02-28T05:46:46;100216.16;;;-3.87
22269;BMP280;11303;50.772;19.670;2023-02-28T05:48:48;100222.09;;;-3.81
22269;BMP280;11303;50.772;19.670;2023-02-28T05:50:50;100226.53;;;-3.77
22269;BMP280;11303;50.772;19.670;2023-02-28T05:52:52;100219.50;;;-3.71
22269;BMP280;11303;50.772;19.670;2023-02-28T05:54:53;100220.84;;;-3.69
22269;BMP280;11303;50.772;19.670;2023-02-28T05:56:55;100225.78;;;-3.57
22269;BMP280;11303;50.772;19.670;2023-02-28T05:58:56;100220.34;;;-3.40
22269;BMP280;11303;50.772;19.670;2023-02-28T06:00:59;100233.81;;;-3.03
22269;BMP280;11303;50.772;19.670;2023-02-28T06:03:01;100237.38;;;-2.69
22269;BMP280;11303;50.772;19.670;2023-02-28T06:05:03;100238.25;;;-2.20
22269;BMP280;11303;50.772;19.670;2023-02-28T06:07:05;100249.19;;;-1.79
22269;BMP280;11303;50.772;19.670;2023-02-28T06:09:06;100252.38;;;-1.54
22269;BMP280;11303;50.772;19.670;2023-02-28T06:11:08;100263.88;;;-1.60
22269;BMP280;11303;50.772;19.670;2023-02-28T06:13:09;100261.47;;;-1.51
22269;BMP280;11303;50.772;19.670;2023-02-28T06:15:15;100265.03;;;-1.42
22269;BMP280;11303;50.772;19.670;2023-02-28T06:17:16;100271.75;;;-1.31
22269;BMP280;11303;50.772;19.670;2023-02-28T06:19:18;100272.81;;;-1.37
22269;BMP280;11303;50.772;19.670;2023-02-28T06:21:20;100278.56;;;-1.40
22269;BMP280;11303;50.772;19.670;2023-02-28T06:23:21;100274.91;;;-1.39
22269;BMP280;11303;50.772;19.670;2023-02-28T06:25:24;100279.41;;;-1.50
22269;BMP280;11303;50.772;19.670;2023-02-28T06:27:25;100282.25;;;-1.46
22269;BMP280;11303;50.772;19.670;2023-02-28T06:29:27;100272.81;;;-1.37
22269;BMP280;11303;50.772;19.670;2023-02-28T06:31:28;100286.03;;;-1.34
22269;BMP280;11303;50.772;19.670;2023-02-28T06:33:31;100282.16;;;-1.31
22269;BMP280;11303;50.772;19.670;2023-02-28T06:35:32;100279.66;;;-1.46
22269;BMP280;11303;50.772;19.670;2023-02-28T06:37:34;100284.59;;;-1.50
22269;BMP280;11303;50.772;19.670;2023-02-28T06:39:35;100276.22;;;-1.42
22269;BMP280;11303;50.772;19.670;2023-02-28T06:41:37;100291.03;;;-1.37
22269;BMP280;11303;50.772;19.670;2023-02-28T06:43:55;100286.25;;;-1.25
22269;BMP280;11303;50.772;19.670;2023-02-28T06:45:58;100271.94;;;-0.94
22269;BMP280;11303;50.772;19.670;2023-02-28T06:48:00;100280.81;;;-0.06
22269;BMP280;11303;50.772;19.670;2023-02-28T06:50:03;100280.88;;;0.90
22269;BMP280;11303;50.772;19.670;2023-02-28T06:52:05;100288.03;;;1.79
22269;BMP280;11303;50.772;19.670;2023-02-28T06:54:07;100289.13;;;2.67
22269;BMP280;11303;50.772;19.670;2023-02-28T06:56:12;100293.81;;;3.09
22269;BMP280;11303;50.772;19.670;2023-02-28T06:58:14;100292.38;;;3.59
22269;BMP280;11303;50.772;19.670;2023-02-28T07:00:21;100288.84;;;3.97
22269;BMP280;11303;50.772;19.670;2023-02-28T07:02:23;100286.97;;;4.15
22269;BMP280;11303;50.772;19.670;2023-02-28T07:04:24;100294.47;;;4.50
22269;BMP280;11303;50.772;19.670;2023-02-28T07:06:27;100290.41;;;4.70
22269;BMP280;11303;50.772;19.670;2023-02-28T07:08:29;100293.91;;;5.20
22269;BMP280;11303;50.772;19.670;2023-02-28T07:10:30;100287.84;;;5.69
22269;BMP280;11303;50.772;19.670;2023-02-28T07:12:32;100300.63;;;5.79
22269;BMP280;11303;50.772;19.670;2023-02-28T07:14:36;100286.84;;;5.62
22269;BMP280;11303;50.772;19.670;2023-02-28T07:16:38;100293.31;;;5.64
22269;BMP280;11303;50.772;19.670;2023-02-28T07:18:39;100292.25;;;5.36
22269;BMP280;11303;50.772;19.670;2023-02-28T07:20:41;100289.06;;;5.22
22269;BMP280;11303;50.772;19.670;2023-02-28T07:22:42;100299.59;;;5.22
22269;BMP280;11303;50.772;19.670;2023-02-28T07:24:44;100304.94;;;5.43
22269;BMP280;11303;50.772;19.670;2023-02-28T07:26:46;100298.56;;;5.64
22269;BMP280;11303;50.772;19.670;2023-02-28T07:28:48;100294.63;;;5.91
22269;BMP280;11303;50.772;19.670;2023-02-28T07:30:50;100291.66;;;6.57
22269;BMP280;11303;50.772;19.670;2023-02-28T07:32:52;100292.94;;;6.39
22269;BMP280;11303;50.772;19.670;2023-02-28T07:34:55;100294.97;;;6.78
22269;BMP280;11303;50.772;19.670;2023-02-28T07:36:57;100294.31;;;6.81
22269;BMP280;11303;50.772;19.670;2023-02-28T07:38:59;100292.56;;;6.97
22269;BMP280;11303;50.772;19.670;2023-02-28T07:41:01;100301.19;;;6.62
22269;BMP280;11303;50.772;19.670;2023-02-28T07:43:05;100301.53;;;6.48
22269;BMP280;11303;50.772;19.670;2023-02-28T07:45:08;100289.13;;;6.61
22269;BMP280;11303;50.772;19.670;2023-02-28T07:47:12;100296.16;;;6.69
22269;BMP280;11303;50.772;19.670;2023-02-28T07:49:14;100287.47;;;6.80
22269;BMP280;11303;50.772;19.670;2023-02-28T07:51:16;100286.84;;;6.83
22269;BMP280;11303;50.772;19.670;2023-02-28T07:53:17;100271.22;;;6.42
22269;BMP280;11303;50.772;19.670;2023-02-28T07:55:19;100283.72;;;6.33
22269;BMP280;11303;50.772;19.670;2023-02-28T07:57:20;100286.97;;;6.75
22269;BMP280;11303;50.772;19.670;2023-02-28T07:59:22;100274.94;;;6.53
22269;BMP280;11303;50.772;19.670;2023-02-28T08:01:24;100277.38;;;6.70
22269;BMP280;11303;50.772;19.670;2023-02-28T08:03:26;100268.56;;;6.42
22269;BMP280;11303;50.772;19.670;2023-02-28T08:05:27;100269.03;;;6.68
22269;BMP280;11303;50.772;19.670;2023-02-28T08:07:29;100266.59;;;6.39
22269;BMP280;11303;50.772;19.670;2023-02-28T08:09:30;100270.66;;;6.49
22269;BMP280;11303;50.772;19.670;2023-02-28T08:11:32;100266.16;;;6.49
22269;BMP280;11303;50.772;19.670;2023-02-28T08:13:33;100278.81;;;6.92
22269;BMP280;11303;50.772;19.670;2023-02-28T08:15:35;100266.28;;;6.77
22269;BMP280;11303;50.772;19.670;2023-02-28T08:17:37;100268.44;;;6.39
22269;BMP280;11303;50.772;19.670;2023-02-28T08:19:39;100269.47;;;6.58
22269;BMP280;11303;50.772;19.670;2023-02-28T08:21:40;100266.97;;;6.86
22269;BMP280;11303;50.772;19.670;2023-02-28T08:23:42;100269.13;;;7.08
22269;BMP280;11303;50.772;19.670;2023-02-28T08:25:44;100260.91;;;6.97
22269;BMP280;11303;50.772;19.670;2023-02-28T08:27:45;100276.84;;;6.89
22269;BMP280;11303;50.772;19.670;2023-02-28T08:29:47;100276.28;;;6.83
22269;BMP280;11303;50.772;19.670;2023-02-28T08:31:48;100275.31;;;6.19
22269;BMP280;11303;50.772;19.670;2023-02-28T08:33:51;100274.25;;;6.44
22269;BMP280;11303;50.772;19.670;2023-02-28T08:35:55;100274.94;;;6.89
22269;BMP280;11303;50.772;19.670;2023-02-28T08:37:57;100277.91;;;6.76
22269;BMP280;11303;50.772;19.670;2023-02-28T08:39:59;100274.41;;;7.47
22269;BMP280;11303;50.772;19.670;2023-02-28T08:42:02;100283.69;;;7.41
22269;BMP280;11303;50.772;19.670;2023-02-28T08:44:08;100268.78;;;6.49
22269;BMP280;11303;50.772;19.670;2023-02-28T08:46:13;100269.69;;;5.76
22269;BMP280;11303;50.772;19.670;2023-02-28T08:48:15;100257.06;;;4.99
22269;BMP280;11303;50.772;19.670;2023-02-28T08:50:19;100261.78;;;5.56
22269;BMP280;11303;50.772;19.670;2023-02-28T08:52:21;100273.00;;;5.85
22269;BMP280;11303;50.772;19.670;2023-02-28T08:54:23;100269.00;;;6.44
22269;BMP280;11303;50.772;19.670;2023-02-28T08:56:26;100275.03;;;6.45
22269;BMP280;11303;50.772;19.670;2023-02-28T08:58:28;100268.25;;;5.17
22269;BMP280;11303;50.772;19.670;2023-02-28T09:00:30;100266.81;;;4.53
22269;BMP280;11303;50.772;19.670;2023-02-28T09:02:32;100268.94;;;3.96
22269;BMP280;11303;50.772;19.670;2023-02-28T09:04:34;100265.22;;;3.72
22269;BMP280;11303;50.772;19.670;2023-02-28T09:06:35;100271.84;;;3.44
22269;BMP280;11303;50.772;19.670;2023-02-28T09:08:37;100274.75;;;2.95
22269;BMP280;11303;50.772;19.670;2023-02-28T09:10:38;100272.13;;;2.64
22269;BMP280;11303;50.772;19.670;2023-02-28T09:12:40;100277.31;;;2.47
22269;BMP280;11303;50.772;19.670;2023-02-28T09:14:43;100283.31;;;2.25
22269;BMP280;11303;50.772;19.670;2023-02-28T09:16:44;100280.69;;;2.25
22269;BMP280;11303;50.772;19.670;2023-02-28T09:18:46;100270.81;;;2.22
22269;BMP280;11303;50.772;19.670;2023-02-28T09:20:48;100278.41;;;2.10
22269;BMP280;11303;50.772;19.670;2023-02-28T09:22:49;100265.06;;;1.98
22269;BMP280;11303;50.772;19.670;2023-02-28T09:24:51;100277.28;;;2.03
22269;BMP280;11303;50.772;19.670;2023-02-28T09:26:53;100273.31;;;2.05
22269;BMP280;11303;50.772;19.670;2023-02-28T09:29:04;100270.28;;;2.12
22269;BMP280;11303;50.772;19.670;2023-02-28T09:31:06;100269.28;;;2.21
22269;BMP280;11303;50.772;19.670;2023-02-28T09:33:08;100279.94;;;2.25
22269;BMP280;11303;50.772;19.670;2023-02-28T09:35:09;100279.41;;;2.14
22269;BMP280;11303;50.772;19.670;2023-02-28T09:37:14;100280.00;;;2.11
22269;BMP280;11303;50.772;19.670;2023-02-28T09:39:16;100271.28;;;2.47
22269;BMP280;11303;50.772;19.670;2023-02-28T09:41:21;100258.09;;;3.47
22269;BMP280;11303;50.772;19.670;2023-02-28T09:43:29;100275.34;;;4.33
22269;BMP280;11303;50.772;19.670;2023-02-28T09:45:36;100256.81;;;4.84
22269;BMP280;11303;50.772;19.670;2023-02-28T09:47:42;100261.16;;;4.80
22269;BMP280;11303;50.772;19.670;2023-02-28T09:49:47;100256.22;;;4.70
22269;BMP280;11303;50.772;19.670;2023-02-28T09:52:09;100254.00;;;4.89
22269;BMP280;11303;50.772;19.670;2023-02-28T09:54:20;100260.22;;;5.13
22269;BMP280;11303;50.772;19.670;2023-02-28T09:56:30;100256.03;;;5.62
22269;BMP280;11303;50.772;19.670;2023-02-28T09:58:49;100254.53;;;6.86
22269;BMP280;11303;50.772;19.670;2023-02-28T10:03:31;100256.59;;;7.99
22269;BMP280;11303;50.772;19.670;2023-02-28T10:06:03;100258.06;;;8.12
22269;BMP280;11303;50.772;19.670;2023-02-28T10:08:36;100258.94;;;8.16
22269;BMP280;11303;50.772;19.670;2023-02-28T10:10:45;100255.34;;;8.55
22269;BMP280;11303;50.772;19.670;2023-02-28T10:12:48;100258.28;;;7.37
22269;BMP280;11303;50.772;19.670;2023-02-28T10:14:54;100259.13;;;6.41
22269;BMP280;11303;50.772;19.670;2023-02-28T10:16:59;100256.28;;;6.58
22269;BMP280;11303;50.772;19.670;2023-02-28T10:19:05;100253.97;;;7.05
22269;BMP280;11303;50.772;19.670;2023-02-28T10:21:19;100254.88;;;7.36
22269;BMP280;11303;50.772;19.670;2023-02-28T10:23:26;100252.97;;;8.19
22269;BMP280;11303;50.772;19.670;2023-02-28T10:25:29;100254.16;;;8.06
22269;BMP280;11303;50.772;19.670;2023-02-28T10:27:32;100246.66;;;8.08
22269;BMP280;11303;50.772;19.670;2023-02-28T10:29:33;100251.84;;;7.22
22269;BMP280;11303;50.772;19.670;2023-02-28T10:31:35;100245.41;;;7.08
22269;BMP280;11303;50.772;19.670;2023-02-28T10:33:37;100245.94;;;7.01
22269;BMP280;11303;50.772;19.670;2023-02-28T10:35:39;100241.75;;;7.12
22269;BMP280;11303;50.772;19.670;2023-02-28T10:37:43;100250.91;;;7.97
22269;BMP280;11303;50.772;19.670;2023-02-28T10:39:46;100243.81;;;8.63
22269;BMP280;11303;50.772;19.670;2023-02-28T10:41:47;100234.84;;;7.90
22269;BMP280;11303;50.772;19.670;2023-02-28T10:43:49;100233.94;;;7.71
22269;BMP280;11303;50.772;19.670;2023-02-28T10:52:48;100224.91;;;7.29
22269;BMP280;11303;50.772;19.670;2023-02-28T10:55:14;100234.28;;;7.02
22269;BMP280;11303;50.772;19.670;2023-02-28T10:57:22;100233.19;;;6.91
22269;BMP280;11303;50.772;19.670;2023-02-28T10:59:30;100231.34;;;6.44
22269;BMP280;11303;50.772;19.670;2023-02-28T11:01:39;100230.72;;;6.02
22269;BMP280;11303;50.772;19.670;2023-02-28T11:03:41;100229.13;;;5.77
22269;BMP280;11303;50.772;19.670;2023-02-28T11:05:43;100225.81;;;6.13
22269;BMP280;11303;50.772;19.670;2023-02-28T11:07:51;100235.06;;;6.31
22269;BMP280;11303;50.772;19.670;2023-02-28T11:09:56;100237.16;;;6.49
22269;BMP280;11303;50.772;19.670;2023-02-28T11:11:59;100229.47;;;6.56
22269;BMP280;11303;50.772;19.670;2023-02-28T11:14:05;100229.16;;;6.01
22269;BMP280;11303;50.772;19.670;2023-02-28T11:16:09;100223.47;;;5.67
22269;BMP280;11303;50.772;19.670;2023-02-28T11:20:23;100226.44;;;5.65
22269;BMP280;11303;50.772;19.670;2023-02-28T11:22:28;100223.84;;;5.57
22269;BMP280;11303;50.772;19.670;2023-02-28T11:24:35;100219.53;;;5.52
22269;BMP280;11303;50.772;19.670;2023-02-28T11:26:44;100213.38;;;5.69
22269;BMP280;11303;50.772;19.670;2023-02-28T11:28:46;100223.72;;;5.32
22269;BMP280;11303;50.772;19.670;2023-02-28T11:31:14;100214.88;;;5.16
22269;BMP280;11303;50.772;19.670;2023-02-28T11:33:43;100222.75;;;5.37
22269;BMP280;11303;50.772;19.670;2023-02-28T11:35:46;100220.81;;;5.87
22269;BMP280;11303;50.772;19.670;2023-02-28T11:37:49;100214.28;;;6.05
22269;BMP280;11303;50.772;19.670;2023-02-28T11:39:51;100217.72;;;6.30
22269;BMP280;11303;50.772;19.670;2023-02-28T11:46:17;100208.38;;;6.20
22269;BMP280;11303;50.772;19.670;2023-02-28T11:50:42;100212.06;;;5.42
22269;BMP280;11303;50.772;19.670;2023-02-28T11:52:56;100210.16;;;5.22
22269;BMP280;11303;50.772;19.670;2023-02-28T11:55:19;100225.19;;;5.01
22269;BMP280;11303;50.772;19.670;2023-02-28T11:59:38;100220.03;;;4.38
22269;BMP280;11303;50.772;19.670;2023-02-28T12:04:24;100214.53;;;4.14
22269;BMP280;11303;50.772;19.670;2023-02-28T12:06:52;100209.31;;;3.97
22269;BMP280;11303;50.772;19.670;2023-02-28T12:13:50;100204.91;;;4.72
22269;BMP280;11303;50.772;19.670;2023-02-28T12:16:18;100199.06;;;5.37
22269;BMP280;11303;50.772;19.670;2023-02-28T12:20:59;100190.59;;;6.53
22269;BMP280;11303;50.772;19.670;2023-02-28T12:23:15;100181.13;;;5.72
22269;BMP280;11303;50.772;19.670;2023-02-28T12:27:44;100185.59;;;6.88
22269;BMP280;11303;50.772;19.670;2023-02-28T12:29:58;100177.56;;;7.36
22269;BMP280;11303;50.772;19.670;2023-02-28T12:32:22;100180.31;;;5.80
22269;BMP280;11303;50.772;19.670;2023-02-28T12:34:30;100176.97;;;4.68
22269;BMP280;11303;50.772;19.670;2023-02-28T12:36:34;100170.97;;;4.21
22269;BMP280;11303;50.772;19.670;2023-02-28T12:38:41;100168.81;;;4.15
22269;BMP280;11303;50.772;19.670;2023-02-28T12:41:09;100161.00;;;3.98